Time;durP1;ratioP1;P1;durP2;ratioP2;P2;SDS_P1;SDS_P2;PMS_P1;PMS_P2;Temp;Humidity;BMP_temperature;BMP_pressure;BME280_temperature;BME280_humidity;BME280_pressure;Samples;Min_cycle;Max_cycle;Signal;HPM_P1;HPM_P2
2021/03/19 00:00:33;;;;;;;15.77;8.70;;;7.00;65.30;;;;;;5011686;28;20046;-72
2021/03/19 00:02:59;;;;;;;14.45;9.20;;;7.00;65.30;;;;;;5013119;28;20472;-72
2021/03/19 00:05:28;;;;;;;13.55;8.40;;;7.00;65.20;;;;;;5011689;28;20108;-72
2021/03/19 00:07:56;;;;;;;14.32;8.40;;;7.00;65.20;;;;;;5013120;28;20033;-72
2021/03/19 00:10:25;;;;;;;15.30;9.25;;;7.00;65.30;;;;;;5013189;28;20037;-71
2021/03/19 00:12:52;;;;;;;12.23;8.20;;;7.00;65.40;;;;;;5012587;28;20026;-72
2021/03/19 00:15:22;;;;;;;14.50;9.07;;;7.00;65.40;;;;;;5012794;28;20034;-71
2021/03/19 00:17:48;;;;;;;14.68;8.65;;;7.00;65.40;;;;;;5012722;28;20026;-71
2021/03/19 00:20:15;;;;;;;12.27;7.88;;;7.00;65.40;;;;;;5013096;28;20376;-72
2021/03/19 00:22:41;;;;;;;13.75;8.50;;;7.10;65.40;;;;;;5013166;28;20033;-72
2021/03/19 00:25:07;;;;;;;13.85;8.73;;;7.00;65.40;;;;;;5012715;28;20038;-73
2021/03/19 00:27:34;;;;;;;12.75;7.63;;;7.00;65.40;;;;;;5012996;28;20383;-72
2021/03/19 00:30:00;;;;;;;13.93;8.30;;;7.00;65.50;;;;;;5012468;28;20025;-72
2021/03/19 00:32:25;;;;;;;14.70;8.40;;;7.00;65.60;;;;;;5012714;28;20026;-72
2021/03/19 00:34:51;;;;;;;13.93;9.20;;;7.00;65.60;;;;;;5012870;28;20030;-72
2021/03/19 00:37:17;;;;;;;13.43;8.05;;;7.00;65.70;;;;;;5014352;28;20042;-73
2021/03/19 00:39:43;;;;;;;16.30;9.43;;;7.10;65.70;;;;;;5016153;28;20028;-72
2021/03/19 00:42:09;;;;;;;17.77;9.95;;;7.00;66.30;;;;;;5016466;28;20049;-72
2021/03/19 00:44:39;;;;;;;19.17;9.18;;;7.00;65.80;;;;;;5015959;28;20108;-72
2021/03/19 00:47:04;;;;;;;20.52;10.30;;;7.10;65.90;;;;;;5016278;28;20028;-72
2021/03/19 00:49:30;;;;;;;16.50;9.98;;;7.10;65.80;;;;;;5016118;28;20034;-72
2021/03/19 00:51:57;;;;;;;14.65;8.57;;;7.10;65.80;;;;;;5015886;28;20427;-72
2021/03/19 00:54:22;;;;;;;16.85;9.05;;;7.00;65.80;;;;;;5015753;28;20041;-72
2021/03/19 00:56:48;;;;;;;14.68;8.18;;;7.10;65.90;;;;;;5016019;28;20412;-72
2021/03/19 00:59:14;;;;;;;13.93;8.38;;;7.10;65.90;;;;;;5016032;28;20148;-73
2021/03/19 01:01:39;;;;;;;12.57;8.45;;;7.10;65.90;;;;;;5014651;28;20044;-72
2021/03/19 01:04:06;;;;;;;15.82;8.30;;;7.10;66.00;;;;;;5014659;28;20037;-72
2021/03/19 01:06:32;;;;;;;13.35;8.40;;;7.10;65.90;;;;;;5015813;28;20100;-72
2021/03/19 01:08:59;;;;;;;13.63;8.18;;;7.10;65.90;;;;;;5015793;28;20037;-73
2021/03/19 01:11:26;;;;;;;15.25;8.43;;;7.10;66.00;;;;;;5015313;28;20034;-72
2021/03/19 01:13:53;;;;;;;13.90;7.75;;;7.10;66.00;;;;;;5015613;28;20109;-72
2021/03/19 01:16:19;;;;;;;14.13;8.18;;;7.10;65.90;;;;;;5015405;28;20133;-72
2021/03/19 01:18:45;;;;;;;15.48;8.52;;;7.10;66.00;;;;;;5015964;28;20070;-72
2021/03/19 01:21:11;;;;;;;13.02;8.13;;;7.10;66.20;;;;;;5015697;28;20030;-72
2021/03/19 01:23:36;;;;;;;13.23;8.10;;;7.10;66.10;;;;;;5015536;28;20048;-73
2021/03/19 01:26:03;;;;;;;12.23;7.95;;;7.10;66.10;;;;;;5015224;28;20034;-72
2021/03/19 01:28:29;;;;;;;15.90;8.43;;;7.10;66.00;;;;;;5015348;28;20033;-72
2021/03/19 01:30:54;;;;;;;14.93;8.32;;;7.00;66.10;;;;;;5015395;28;20033;-72
2021/03/19 01:33:21;;;;;;;12.60;8.05;;;7.00;66.10;;;;;;5015005;28;20022;-72
2021/03/19 01:35:46;;;;;;;14.85;8.30;;;7.00;66.20;;;;;;5013914;28;20038;-72
2021/03/19 01:38:12;;;;;;;11.98;7.57;;;7.10;66.30;;;;;;5013968;28;20041;-73
2021/03/19 01:40:43;;;;;;;16.73;9.10;;;7.10;66.40;;;;;;5015261;28;20029;-72
2021/03/19 01:43:18;;;;;;;12.40;7.97;;;7.10;66.30;;;;;;5013823;28;20121;-72
2021/03/19 01:46:21;;;;;;;12.52;6.82;;;7.10;66.30;;;;;;5014716;28;20581;-73
2021/03/19 01:49:41;;;;;;;12.48;7.72;;;7.10;66.30;;;;;;5014114;28;20072;-72
2021/03/19 01:52:44;;;;;;;12.30;7.65;;;7.10;66.30;;;;;;4973656;28;20520;-73
2021/03/19 01:55:47;;;;;;;11.25;7.07;;;7.10;66.20;;;;;;4995425;28;20038;-72
2021/03/19 01:58:50;;;;;;;11.23;7.40;;;7.10;66.20;;;;;;4994970;28;20038;-73
2021/03/19 02:01:53;;;;;;;10.77;6.65;;;7.10;66.30;;;;;;4998303;28;20141;-72
2021/03/19 02:04:56;;;;;;;12.32;7.03;;;7.20;66.20;;;;;;5014463;28;20034;-72
2021/03/19 02:08:06;;;;;;;13.77;7.55;;;7.20;66.20;;;;;;5014321;28;20034;-73
2021/03/19 02:11:09;;;;;;;10.32;7.30;;;7.20;66.20;;;;;;5003333;28;20034;-73
2021/03/19 02:14:12;;;;;;;11.35;6.88;;;7.20;66.20;;;;;;5014704;28;20036;-72
2021/03/19 02:17:15;;;;;;;11.95;7.70;;;7.20;66.30;;;;;;5014259;28;20041;-72
2021/03/19 02:20:18;;;;;;;11.07;7.15;;;7.20;66.30;;;;;;4995156;28;20030;-73
2021/03/19 02:23:21;;;;;;;11.93;6.80;;;7.10;66.10;;;;;;4995267;28;20026;-72
2021/03/19 02:26:24;;;;;;;11.32;7.03;;;7.10;66.10;;;;;;4995137;28;20555;-72
2021/03/19 02:29:27;;;;;;;12.48;6.78;;;7.10;66.20;;;;;;4994785;28;20041;-72
2021/03/19 02:32:11;;;;;;;12.70;7.55;;;7.10;66.30;;;;;;4994677;28;20061;-72
2021/03/19 02:34:51;;;;;;;11.00;6.85;;;7.10;66.30;;;;;;5013026;28;20061;-72
2021/03/19 02:37:23;;;;;;;11.15;7.32;;;7.10;66.40;;;;;;4994465;28;20040;-73
2021/03/19 02:39:49;;;;;;;9.88;7.18;;;7.10;66.40;;;;;;4994289;28;20100;-72
2021/03/19 02:42:18;;;;;;;12.20;7.07;;;7.10;66.50;;;;;;4994364;28;20027;-73
2021/03/19 02:44:44;;;;;;;11.43;7.43;;;7.10;66.50;;;;;;5003171;28;20159;-72
2021/03/19 02:47:11;;;;;;;8.98;7.05;;;7.00;66.50;;;;;;5014114;28;20026;-72
2021/03/19 02:49:37;;;;;;;10.77;7.57;;;7.00;66.50;;;;;;5013594;28;20034;-73
2021/03/19 02:52:04;;;;;;;11.38;8.07;;;7.00;66.60;;;;;;5030458;28;20033;-72
2021/03/19 02:54:30;;;;;;;10.88;7.03;;;7.00;66.50;;;;;;5033038;28;20570;-72
2021/03/19 02:56:56;;;;;;;10.95;6.40;;;7.00;66.60;;;;;;5031395;28;20021;-72
2021/03/19 02:59:22;;;;;;;11.25;7.47;;;7.00;66.70;;;;;;5031984;28;20506;-73
2021/03/19 03:01:48;;;;;;;11.02;7.63;;;7.00;66.80;;;;;;5032296;28;20428;-73
2021/03/19 03:04:14;;;;;;;12.27;7.03;;;7.00;66.80;;;;;;5032283;28;20025;-72
2021/03/19 03:06:58;;;;;;;10.32;7.30;;;7.00;66.80;;;;;;5032013;28;20029;-73
2021/03/19 03:09:31;;;;;;;10.53;7.07;;;7.00;66.90;;;;;;5033419;28;20026;-72
2021/03/19 03:12:01;;;;;;;11.82;7.68;;;7.00;66.80;;;;;;5033413;28;20028;-72
2021/03/19 03:14:29;;;;;;;10.93;7.35;;;7.00;66.80;;;;;;5032915;28;20037;-72
2021/03/19 03:17:00;;;;;;;13.43;7.20;;;6.90;66.90;;;;;;5032016;28;20031;-73
2021/03/19 03:19:26;;;;;;;10.82;7.40;;;7.00;67.00;;;;;;5033110;28;20074;-72
2021/03/19 03:21:52;;;;;;;11.50;7.38;;;6.90;66.80;;;;;;5033278;28;20025;-72
2021/03/19 03:24:19;;;;;;;10.82;7.00;;;6.90;66.90;;;;;;5033151;28;20029;-73
2021/03/19 03:26:44;;;;;;;10.40;7.38;;;6.90;67.00;;;;;;5033240;28;20034;-72
2021/03/19 03:29:12;;;;;;;12.80;7.72;;;6.90;67.00;;;;;;5028727;28;20449;-72
2021/03/19 03:31:40;;;;;;;13.07;8.20;;;6.90;67.00;;;;;;5020884;28;20105;-72
2021/03/19 03:34:07;;;;;;;16.58;8.23;;;6.90;67.00;;;;;;5022615;28;20036;-72
2021/03/19 03:36:34;;;;;;;13.32;7.80;;;6.90;66.90;;;;;;5018382;28;20037;-72
2021/03/19 03:39:04;;;;;;;13.55;8.70;;;6.90;67.10;;;;;;5020696;28;20026;-72
2021/03/19 03:41:30;;;;;;;21.20;10.00;;;6.90;67.10;;;;;;5022628;28;20026;-73
2021/03/19 03:43:56;;;;;;;19.08;10.00;;;6.90;67.20;;;;;;5021183;28;20018;-74
2021/03/19 03:46:24;;;;;;;14.75;9.55;;;6.90;67.10;;;;;;5020347;28;20026;-73
2021/03/19 03:48:50;;;;;;;15.95;9.27;;;6.90;67.00;;;;;;5022936;28;20036;-73
2021/03/19 03:51:17;;;;;;;14.60;9.38;;;6.90;67.00;;;;;;5021182;28;20423;-74
2021/03/19 03:53:43;;;;;;;15.82;8.50;;;6.90;67.00;;;;;;5021329;28;20029;-73
2021/03/19 03:56:12;;;;;;;14.40;9.05;;;6.90;67.20;;;;;;5022589;28;20041;-73
2021/03/19 03:58:38;;;;;;;14.90;9.13;;;7.00;67.20;;;;;;5019853;28;20052;-74
2021/03/19 04:01:05;;;;;;;18.83;10.40;;;7.00;67.10;;;;;;5022412;28;20032;-73
2021/03/19 04:03:32;;;;;;;13.20;9.13;;;7.00;67.10;;;;;;5020597;28;20037;-73
2021/03/19 04:05:58;;;;;;;15.95;8.80;;;6.90;67.00;;;;;;5022311;28;20031;-73
2021/03/19 04:08:27;;;;;;;14.32;9.15;;;7.00;67.20;;;;;;5022377;28;20402;-73
2021/03/19 04:10:56;;;;;;;14.77;9.30;;;6.90;67.00;;;;;;5017973;28;20025;-73
2021/03/19 04:13:24;;;;;;;14.95;8.45;;;6.90;67.10;;;;;;5023413;28;20029;-73
2021/03/19 04:15:51;;;;;;;15.32;8.95;;;7.00;67.10;;;;;;5026299;28;20467;-72
2021/03/19 04:18:18;;;;;;;15.65;9.93;;;7.00;67.10;;;;;;5027409;28;20017;-73
2021/03/19 04:20:49;;;;;;;13.55;9.18;;;7.00;67.20;;;;;;5024842;28;20100;-72
2021/03/19 04:23:16;;;;;;;14.45;10.13;;;7.00;67.10;;;;;;5022158;28;20452;-72
2021/03/19 04:25:41;;;;;;;14.48;9.05;;;7.00;67.20;;;;;;5025097;28;20108;-73
2021/03/19 04:28:13;;;;;;;16.33;9.25;;;7.00;67.20;;;;;;5025767;28;20081;-73
2021/03/19 04:30:44;;;;;;;16.73;9.68;;;7.00;67.10;;;;;;5024084;28;20022;-73
2021/03/19 04:33:21;;;;;;;17.30;10.20;;;7.00;67.00;;;;;;5024250;28;20026;-73
2021/03/19 04:36:06;;;;;;;14.23;9.18;;;7.00;67.10;;;;;;5024168;28;20034;-73
2021/03/19 04:38:36;;;;;;;16.90;9.98;;;7.10;67.10;;;;;;5025837;28;20036;-72
2021/03/19 04:41:02;;;;;;;17.98;9.40;;;7.10;67.20;;;;;;5023932;28;20030;-73
2021/03/19 04:43:28;;;;;;;14.90;9.68;;;7.10;67.20;;;;;;5006305;28;20025;-73
2021/03/19 04:45:53;;;;;;;12.75;9.43;;;7.10;67.30;;;;;;5023739;28;20029;-73
2021/03/19 04:48:19;;;;;;;15.88;9.85;;;7.20;67.30;;;;;;5024756;28;20049;-74
2021/03/19 04:50:45;;;;;;;14.57;9.38;;;7.20;67.20;;;;;;5025255;28;20105;-72
2021/03/19 04:53:11;;;;;;;14.65;9.77;;;7.30;67.10;;;;;;5023665;28;20029;-73
2021/03/19 04:55:37;;;;;;;16.60;10.38;;;7.30;67.00;;;;;;5024657;28;20037;-73
2021/03/19 04:58:03;;;;;;;15.73;10.65;;;7.30;66.90;;;;;;5024983;28;20092;-72
2021/03/19 05:00:28;;;;;;;16.05;9.85;;;7.30;66.70;;;;;;5018956;28;20127;-73
2021/03/19 05:02:54;;;;;;;14.27;9.32;;;7.30;66.80;;;;;;5015951;28;20088;-73
2021/03/19 05:05:28;;;;;;;12.75;9.23;;;7.40;66.70;;;;;;5015684;28;20120;-73
2021/03/19 05:07:54;;;;;;;13.77;8.93;;;7.40;66.50;;;;;;5015545;28;20048;-73
2021/03/19 05:10:23;;;;;;;14.77;9.23;;;7.40;66.40;;;;;;5015709;28;20033;-73
2021/03/19 05:12:49;;;;;;;17.17;9.50;;;7.40;66.50;;;;;;5015778;28;20025;-73
2021/03/19 05:15:16;;;;;;;13.23;8.80;;;7.50;66.50;;;;;;5015234;28;20044;-72
2021/03/19 05:17:41;;;;;;;13.63;9.00;;;7.50;66.20;;;;;;5015232;28;20036;-73
2021/03/19 05:20:10;;;;;;;14.23;9.52;;;7.60;66.20;;;;;;5012657;28;20128;-74
2021/03/19 05:22:36;;;;;;;13.48;9.45;;;7.60;66.10;;;;;;5015529;28;20460;-74
2021/03/19 05:25:03;;;;;;;14.00;9.07;;;7.60;66.20;;;;;;5013791;28;20061;-71
2021/03/19 05:27:29;;;;;;;14.02;9.10;;;7.60;66.10;;;;;;5015273;28;20392;-72
2021/03/19 05:29:57;;;;;;;13.90;9.45;;;7.70;66.00;;;;;;5015187;28;20026;-71
2021/03/19 05:32:25;;;;;;;13.82;9.57;;;7.70;65.90;;;;;;5015310;28;20038;-72
2021/03/19 05:34:51;;;;;;;12.95;9.48;;;7.80;65.90;;;;;;5014703;28;20126;-73
2021/03/19 05:37:18;;;;;;;12.45;8.98;;;7.80;65.90;;;;;;5015156;28;20022;-73
2021/03/19 05:39:44;;;;;;;15.20;9.38;;;7.90;65.80;;;;;;5015071;28;20391;-73
2021/03/19 05:42:16;;;;;;;13.23;9.70;;;8.00;65.60;;;;;;5015427;28;20041;-73
2021/03/19 05:44:44;;;;;;;16.65;9.45;;;8.10;65.40;;;;;;5014720;28;20029;-73
2021/03/19 05:47:12;;;;;;;14.07;9.70;;;8.10;65.30;;;;;;5014748;28;20507;-71
2021/03/19 05:49:38;;;;;;;15.68;9.65;;;8.20;65.20;;;;;;5018410;28;20136;-73
2021/03/19 05:52:10;;;;;;;11.20;9.15;;;8.30;65.20;;;;;;5006046;28;20084;-73
2021/03/19 05:54:35;;;;;;;15.20;10.10;;;8.40;64.90;;;;;;5022913;28;20030;-74
2021/03/19 05:57:04;;;;;;;15.90;10.65;;;8.40;64.80;;;;;;5025000;28;20028;-74
2021/03/19 05:59:38;;;;;;;13.20;9.65;;;8.50;64.60;;;;;;5024577;28;20074;-71
2021/03/19 06:02:16;;;;;;;14.57;10.20;;;8.60;64.30;;;;;;5021766;28;20060;-72
2021/03/19 06:04:41;;;;;;;16.98;9.98;;;8.70;64.00;;;;;;5021169;28;20029;-73
2021/03/19 06:07:07;;;;;;;14.20;10.38;;;8.80;63.90;;;;;;5027514;28;20028;-73
2021/03/19 06:09:39;;;;;;;15.52;11.43;;;8.80;63.70;;;;;;5031064;28;20080;-72
2021/03/19 06:12:10;;;;;;;14.80;11.15;;;8.90;63.60;;;;;;5034409;28;20029;-72
2021/03/19 06:14:55;;;;;;;15.15;9.65;;;8.90;63.60;;;;;;5032804;28;20383;-72
2021/03/19 06:17:34;;;;;;;13.45;9.50;;;9.00;63.50;;;;;;5032920;28;20049;-72
2021/03/19 06:20:11;;;;;;;14.43;9.52;;;9.00;63.30;;;;;;5034113;28;20435;-72
2021/03/19 06:22:46;;;;;;;12.57;9.30;;;9.10;63.20;;;;;;5033783;28;20535;-72
2021/03/19 06:25:33;;;;;;;16.20;9.60;;;9.20;63.00;;;;;;5034111;28;20108;-73
2021/03/19 06:28:21;;;;;;;11.77;8.65;;;9.20;62.70;;;;;;5033604;28;20088;-72
2021/03/19 06:30:47;;;;;;;15.68;8.75;;;9.20;62.50;;;;;;5033576;28;20494;-73
2021/03/19 06:33:13;;;;;;;14.13;10.13;;;9.20;62.50;;;;;;5033492;28;20100;-72
2021/03/19 06:35:42;;;;;;;12.55;9.40;;;9.20;62.50;;;;;;5033242;28;20099;-72
2021/03/19 06:38:26;;;;;;;12.30;9.93;;;9.30;62.60;;;;;;5033540;28;20025;-73
2021/03/19 06:40:52;;;;;;;16.20;9.30;;;9.40;62.60;;;;;;5033685;28;20068;-73
2021/03/19 06:43:21;;;;;;;14.10;9.52;;;9.50;62.40;;;;;;5033353;28;20402;-73
2021/03/19 06:45:50;;;;;;;14.40;9.00;;;9.60;62.40;;;;;;5033507;28;20371;-73
2021/03/19 06:48:38;;;;;;;13.52;8.75;;;9.70;62.20;;;;;;5033183;28;20025;-73
2021/03/19 06:51:11;;;;;;;15.05;9.18;;;9.80;61.80;;;;;;5032712;28;20031;-74
2021/03/19 06:53:36;;;;;;;13.18;8.95;;;9.90;61.50;;;;;;5013337;28;20022;-72
2021/03/19 06:56:23;;;;;;;13.50;9.98;;;10.00;61.40;;;;;;5013553;28;20407;-71
2021/03/19 06:58:50;;;;;;;12.95;9.18;;;10.00;61.00;;;;;;5013333;28;20080;-72
2021/03/19 07:01:32;;;;;;;14.15;9.98;;;10.10;60.90;;;;;;5013198;28;20026;-72
2021/03/19 07:04:13;;;;;;;13.90;9.48;;;10.10;60.60;;;;;;5013559;28;20032;-72
2021/03/19 07:07:01;;;;;;;13.93;9.52;;;10.10;60.50;;;;;;5013273;28;20030;-72
2021/03/19 07:09:54;;;;;;;14.25;9.95;;;10.20;60.30;;;;;;5012403;28;20037;-72
2021/03/19 07:12:45;;;;;;;13.27;10.32;;;10.20;60.20;;;;;;5013261;28;20071;-71
2021/03/19 07:15:14;;;;;;;13.25;9.13;;;10.30;60.30;;;;;;5013459;28;20455;-72
2021/03/19 07:21:58;;;;;;;17.33;10.20;;;10.50;59.90;;;;;;4993892;28;20073;-72
2021/03/19 07:24:29;;;;;;;14.73;9.65;;;10.70;59.80;;;;;;4993992;28;20380;-73
2021/03/19 07:27:07;;;;;;;13.43;10.50;;;10.90;59.50;;;;;;4993726;28;20105;-72
2021/03/19 07:29:54;;;;;;;13.95;10.32;;;10.90;59.10;;;;;;4993545;28;20033;-73
2021/03/19 07:32:58;;;;;;;13.25;10.27;;;11.00;58.80;;;;;;4992398;28;20041;-72
2021/03/19 07:35:32;;;;;;;14.55;9.75;;;11.10;58.90;;;;;;4993225;28;20437;-72
2021/03/19 07:38:28;;;;;;;16.95;10.93;;;11.20;58.80;;;;;;5005293;28;20065;-73
2021/03/19 07:41:18;;;;;;;15.75;11.02;;;11.40;58.40;;;;;;5012830;28;20397;-73
2021/03/19 07:44:04;;;;;;;17.13;10.85;;;11.60;58.00;;;;;;5013018;28;20030;-73
2021/03/19 07:46:55;;;;;;;15.48;10.75;;;11.80;57.60;;;;;;5013383;28;20034;-73
2021/03/19 07:49:29;;;;;;;16.67;11.40;;;11.80;57.20;;;;;;5017723;28;20072;-73
2021/03/19 07:52:13;;;;;;;17.15;12.15;;;11.80;56.90;;;;;;5016959;28;20030;-73
2021/03/19 07:54:55;;;;;;;21.23;13.18;;;11.80;56.90;;;;;;5017075;28;20038;-73
2021/03/19 07:57:34;;;;;;;16.45;12.43;;;11.80;56.60;;;;;;5017029;28;20029;-73
2021/03/19 08:00:12;;;;;;;15.55;11.38;;;11.80;56.50;;;;;;5017366;28;20101;-73
2021/03/19 08:03:11;;;;;;;15.13;10.25;;;11.80;56.60;;;;;;5015662;28;20045;-72
2021/03/19 08:05:51;;;;;;;12.43;9.23;;;11.70;56.50;;;;;;5016949;28;20117;-72
2021/03/19 08:08:24;;;;;;;16.77;11.13;;;11.80;56.50;;;;;;5016300;28;20092;-72
2021/03/19 08:11:05;;;;;;;12.43;10.02;;;11.80;56.50;;;;;;5017194;28;20038;-73
2021/03/19 08:13:49;;;;;;;15.52;10.45;;;11.80;56.30;;;;;;5016374;28;20468;-73
2021/03/19 08:16:21;;;;;;;13.13;10.07;;;11.80;56.40;;;;;;5015526;28;20034;-72
2021/03/19 08:19:14;;;;;;;14.18;10.38;;;11.90;56.40;;;;;;5016558;28;20376;-72
2021/03/19 08:21:58;;;;;;;15.05;11.15;;;12.00;56.30;;;;;;5000954;28;20406;-73
2021/03/19 08:24:33;;;;;;;17.73;10.53;;;12.20;56.00;;;;;;5025697;28;20471;-72
2021/03/19 08:27:23;;;;;;;15.52;11.10;;;12.40;55.80;;;;;;5026024;28;20132;-72
2021/03/19 08:30:11;;;;;;;14.52;10.30;;;12.40;55.60;;;;;;5024409;28;20436;-74
2021/03/19 08:32:59;;;;;;;14.90;10.32;;;12.50;55.30;;;;;;5024671;28;20026;-72
2021/03/19 08:35:40;;;;;;;14.77;10.73;;;12.50;55.60;;;;;;5025688;28;20076;-72
2021/03/19 08:38:21;;;;;;;13.68;10.35;;;12.40;54.90;;;;;;5023588;28;20026;-73
2021/03/19 08:41:03;;;;;;;15.48;10.25;;;12.40;54.90;;;;;;5021394;28;20109;-73
2021/03/19 08:43:39;;;;;;;14.43;10.57;;;12.30;54.80;;;;;;5020864;28;20628;-73
2021/03/19 08:46:18;;;;;;;14.77;10.13;;;12.20;55.40;;;;;;5023410;28;20029;-72
2021/03/19 08:48:54;;;;;;;15.30;10.77;;;12.10;55.00;;;;;;5023761;28;20029;-72
2021/03/19 08:51:23;;;;;;;13.13;10.15;;;12.10;55.10;;;;;;5023519;28;20492;-73
2021/03/19 08:54:11;;;;;;;15.13;9.98;;;12.20;55.30;;;;;;5021507;28;20160;-72
2021/03/19 08:56:41;;;;;;;14.18;10.60;;;12.30;55.20;;;;;;5017179;28;20084;-73
2021/03/19 08:59:06;;;;;;;13.02;10.40;;;12.40;55.10;;;;;;5020739;28;20046;-72
2021/03/19 09:01:54;;;;;;;16.40;10.25;;;12.40;54.70;;;;;;5024711;28;20474;-73
2021/03/19 09:04:55;;;;;;;13.38;9.55;;;12.40;54.50;;;;;;5025284;28;20030;-75
2021/03/19 09:07:31;;;;;;;13.95;8.98;;;12.40;54.70;;;;;;4946090;28;20054;-74
2021/03/19 09:10:16;;;;;;;15.55;10.05;;;12.50;54.80;;;;;;5018329;28;20045;-73
2021/03/19 09:12:57;;;;;;;18.88;9.82;;;12.60;54.60;;;;;;5035486;28;20032;-73
2021/03/19 09:15:23;;;;;;;13.07;8.45;;;12.70;54.50;;;;;;5035417;28;20037;-72
2021/03/19 09:17:49;;;;;;;14.70;9.90;;;12.80;54.50;;;;;;5035252;28;20055;-73
2021/03/19 09:20:46;;;;;;;13.88;9.05;;;13.00;54.40;;;;;;5035181;28;20030;-72
2021/03/19 09:23:25;;;;;;;13.00;8.60;;;13.20;54.00;;;;;;5027572;28;20095;-72
2021/03/19 09:26:19;;;;;;;14.07;9.32;;;13.40;53.70;;;;;;5026128;28;20102;-73
2021/03/19 09:29:03;;;;;;;13.83;9.73;;;13.60;53.40;;;;;;5016142;28;20080;-73
2021/03/19 09:31:35;;;;;;;15.10;10.07;;;13.70;53.10;;;;;;5033776;28;20262;-72
2021/03/19 09:34:16;;;;;;;13.60;9.57;;;13.90;52.60;;;;;;5018573;28;20072;-72
2021/03/19 09:37:12;;;;;;;11.95;9.05;;;14.10;52.10;;;;;;5020487;28;20045;-73
2021/03/19 09:39:59;;;;;;;13.05;9.55;;;14.10;51.50;;;;;;5021807;28;20026;-72
2021/03/19 09:42:28;;;;;;;18.38;10.82;;;14.10;51.10;;;;;;4995594;28;20031;-73
2021/03/19 09:44:59;;;;;;;12.52;8.10;;;14.10;51.10;;;;;;4995548;28;20030;-72
2021/03/19 09:47:43;;;;;;;14.13;9.07;;;14.10;51.00;;;;;;4995445;28;20114;-72
2021/03/19 09:50:27;;;;;;;11.55;8.90;;;14.10;51.20;;;;;;4995408;28;20026;-72
2021/03/19 09:52:59;;;;;;;10.75;7.93;;;14.30;50.90;;;;;;4994988;28;20023;-72
2021/03/19 09:55:45;;;;;;;10.68;7.93;;;14.40;50.80;;;;;;4995192;28;20041;-72
2021/03/19 09:58:43;;;;;;;11.57;7.95;;;14.60;50.50;;;;;;4995241;28;20155;-72
2021/03/19 10:01:25;;;;;;;12.23;8.05;;;14.90;50.10;;;;;;4995118;28;20042;-72
2021/03/19 10:03:57;;;;;;;12.57;8.25;;;15.30;49.60;;;;;;5012958;28;20104;-72
2021/03/19 10:06:45;;;;;;;12.05;8.50;;;15.80;49.30;;;;;;5014852;28;20038;-73
2021/03/19 10:09:16;;;;;;;8.90;7.38;;;16.40;48.30;;;;;;5014251;28;20069;-72
2021/03/19 10:11:54;;;;;;;11.27;8.40;;;17.00;47.50;;;;;;5014403;28;20030;-73
2021/03/19 10:14:35;;;;;;;10.00;7.20;;;17.10;46.10;;;;;;5017701;28;20061;-72
2021/03/19 10:17:37;;;;;;;12.50;7.70;;;17.00;45.60;;;;;;5020995;28;20029;-73
2021/03/19 10:20:29;;;;;;;12.43;7.50;;;16.80;45.30;;;;;;5020264;28;20135;-73
2021/03/19 10:23:09;;;;;;;10.45;7.30;;;16.40;45.40;;;;;;5019277;28;20026;-72
2021/03/19 10:25:45;;;;;;;10.73;6.15;;;16.10;45.90;;;;;;5021679;28;20113;-73
2021/03/19 10:28:17;;;;;;;11.25;7.32;;;15.90;46.10;;;;;;5018204;28;20484;-72
2021/03/19 10:30:51;;;;;;;9.23;6.80;;;15.60;46.40;;;;;;5022960;28;20037;-72
2021/03/19 10:33:23;;;;;;;;;;;15.30;46.90;;;;;;5018838;28;20480;-72
2021/03/19 10:36:09;;;;;;;10.27;7.35;;;15.10;47.50;;;;;;5021685;28;19932;-73
2021/03/19 10:38:38;;;;;;;11.98;7.28;;;14.90;47.60;;;;;;5023575;28;20017;-73
2021/03/19 10:41:30;;;;;;;16.30;7.82;;;14.80;47.80;;;;;;5022749;28;20022;-73
2021/03/19 10:44:03;;;;;;;9.32;7.32;;;14.50;47.80;;;;;;5036965;28;20064;-72
2021/03/19 10:46:59;;;;;;;8.98;7.05;;;14.30;48.20;;;;;;5027661;28;20029;-73
2021/03/19 10:49:37;;;;;;;10.70;7.78;;;14.20;48.40;;;;;;5032939;28;20029;-72
2021/03/19 10:52:13;;;;;;;11.68;7.38;;;14.00;48.70;;;;;;5033738;28;20056;-73
2021/03/19 10:54:42;;;;;;;10.95;7.90;;;13.80;49.00;;;;;;5033562;28;20041;-73
2021/03/19 10:57:35;;;;;;;10.13;7.78;;;13.60;49.10;;;;;;5033474;28;20032;-73
2021/03/19 11:00:20;;;;;;;13.15;7.80;;;13.40;49.30;;;;;;5033497;28;20052;-73
2021/03/19 11:02:58;;;;;;;10.77;7.57;;;13.30;49.70;;;;;;5026266;28;20076;-73
2021/03/19 11:05:24;;;;;;;7.70;6.85;;;13.10;50.10;;;;;;5015924;28;20036;-72
2021/03/19 11:07:50;;;;;;;9.85;7.35;;;13.00;50.20;;;;;;5013336;28;20029;-73
2021/03/19 11:10:21;;;;;;;10.45;7.63;;;12.90;50.40;;;;;;5014171;28;20022;-73
2021/03/19 11:13:18;;;;;;;11.65;8.80;;;12.70;50.50;;;;;;5019926;28;20040;-73
2021/03/19 11:15:47;;;;;;;9.55;7.43;;;12.60;50.80;;;;;;5021591;28;20084;-73
2021/03/19 11:18:27;;;;;;;10.32;8.07;;;12.50;51.00;;;;;;5022764;28;20079;-72
2021/03/19 11:20:58;;;;;;;10.85;7.88;;;12.40;51.30;;;;;;5021047;28;20030;-72
2021/03/19 11:23:47;;;;;;;12.40;8.90;;;12.30;51.40;;;;;;5021337;28;20030;-73
2021/03/19 11:26:23;;;;;;;12.52;8.65;;;12.20;51.50;;;;;;5022447;28;20079;-74
2021/03/19 11:28:50;;;;;;;12.70;8.68;;;12.10;51.80;;;;;;4993197;28;20038;-72
2021/03/19 11:31:18;;;;;;;13.23;8.25;;;12.00;52.10;;;;;;4993272;28;20084;-73
2021/03/19 11:33:53;;;;;;;13.45;8.23;;;11.80;52.10;;;;;;5016042;28;20056;-73
2021/03/19 11:36:19;;;;;;;9.60;7.75;;;11.70;52.40;;;;;;5033027;28;20132;-72
2021/03/19 11:38:45;;;;;;;15.63;8.68;;;11.50;52.60;;;;;;5032819;28;20109;-72
2021/03/19 11:41:29;;;;;;;12.02;8.50;;;11.50;53.10;;;;;;5031612;28;20602;-72
2021/03/19 11:43:55;;;;;;;13.05;9.23;;;11.40;53.50;;;;;;5031468;28;20108;-72
2021/03/19 11:46:22;;;;;;;17.73;9.70;;;11.40;53.40;;;;;;5031862;28;20048;-73
2021/03/19 11:48:49;;;;;;;16.25;9.85;;;11.30;53.60;;;;;;5031642;28;20055;-72
2021/03/19 11:51:27;;;;;;;13.98;9.32;;;11.20;53.80;;;;;;5032577;28;20472;-72
2021/03/19 11:53:53;;;;;;;16.35;10.45;;;11.10;54.20;;;;;;5032777;28;20022;-72
2021/03/19 11:56:19;;;;;;;15.43;9.40;;;11.00;54.20;;;;;;5032174;28;20034;-72
2021/03/19 11:58:44;;;;;;;15.80;9.05;;;10.90;54.30;;;;;;5030998;28;20065;-73
2021/03/19 12:01:10;;;;;;;18.40;10.05;;;10.80;54.50;;;;;;5017914;28;20034;-73
2021/03/19 12:03:39;;;;;;;16.65;9.93;;;10.80;54.80;;;;;;5012657;28;20032;-72
2021/03/19 12:06:08;;;;;;;12.15;8.57;;;10.70;55.10;;;;;;5012839;28;20040;-73
2021/03/19 12:08:36;;;;;;;10.50;7.95;;;10.70;55.10;;;;;;5012905;28;20037;-72
2021/03/19 12:11:03;;;;;;;15.85;10.32;;;10.60;55.00;;;;;;5012747;28;20029;-72
2021/03/19 12:13:29;;;;;;;13.18;8.70;;;10.60;55.30;;;;;;5012959;28;20026;-73
2021/03/19 12:15:55;;;;;;;14.27;7.85;;;10.60;55.50;;;;;;5012380;28;20056;-74
2021/03/19 12:18:23;;;;;;;15.32;9.43;;;10.60;55.60;;;;;;5012553;28;20037;-73
2021/03/19 12:20:49;;;;;;;14.52;8.98;;;10.60;55.50;;;;;;5012707;28;20026;-72
2021/03/19 12:23:15;;;;;;;15.32;8.63;;;10.60;55.50;;;;;;5011740;28;20033;-72
2021/03/19 12:25:41;;;;;;;13.30;9.40;;;10.60;55.50;;;;;;5011398;28;20030;-76
2021/03/19 12:28:11;;;;;;;18.60;9.45;;;10.60;55.70;;;;;;5012893;28;20030;-73
2021/03/19 12:30:37;;;;;;;10.65;8.07;;;10.60;56.00;;;;;;5011540;28;20026;-73
2021/03/19 12:33:04;;;;;;;12.93;8.38;;;10.60;55.80;;;;;;5013770;28;20026;-73
2021/03/19 12:35:30;;;;;;;14.27;8.55;;;10.50;55.70;;;;;;5016120;28;20044;-72
2021/03/19 12:37:57;;;;;;;11.68;8.07;;;10.60;55.70;;;;;;5016128;28;20030;-72
2021/03/19 12:40:26;;;;;;;11.85;8.88;;;10.60;55.80;;;;;;5016211;28;20029;-72
2021/03/19 12:42:52;;;;;;;14.85;9.27;;;10.60;55.70;;;;;;5016201;28;20037;-72
2021/03/19 12:45:21;;;;;;;15.23;10.02;;;10.60;55.70;;;;;;5022003;28;20033;-72
2021/03/19 12:47:46;;;;;;;13.10;9.70;;;10.60;55.80;;;;;;5035563;28;20475;-73
2021/03/19 12:50:12;;;;;;;13.75;9.95;;;10.50;55.70;;;;;;5035842;28;20029;-73
2021/03/19 12:52:38;;;;;;;15.95;10.55;;;10.60;55.90;;;;;;5035886;28;20029;-73
2021/03/19 12:55:05;;;;;;;19.95;12.85;;;10.50;56.10;;;;;;5051623;28;20080;-73
2021/03/19 12:57:31;;;;;;;20.92;13.55;;;10.50;56.30;;;;;;5017516;28;20416;-72
2021/03/19 12:59:56;;;;;;;17.85;12.60;;;10.40;56.60;;;;;;5014643;28;20100;-74
2021/03/19 13:02:22;;;;;;;17.30;13.00;;;10.40;56.70;;;;;;5030996;28;20096;-72
2021/03/19 13:04:48;;;;;;;18.98;12.18;;;10.40;56.90;;;;;;5021487;28;20034;-73
2021/03/19 13:07:14;;;;;;;19.70;13.20;;;10.30;57.10;;;;;;5025868;28;20090;-74
2021/03/19 13:09:40;;;;;;;21.13;14.70;;;10.30;57.20;;;;;;5023282;28;20033;-74
2021/03/19 13:12:06;;;;;;;24.25;16.73;;;10.20;57.30;;;;;;5025268;28;20087;-73
2021/03/19 13:14:32;;;;;;;24.85;16.20;;;10.20;57.50;;;;;;5023881;28;20072;-73
2021/03/19 13:17:00;;;;;;;25.65;17.58;;;10.10;57.60;;;;;;5027139;28;20029;-72
2021/03/19 13:19:25;;;;;;;24.20;15.63;;;10.10;57.90;;;;;;5019350;28;20476;-72